Time;durP1;ratioP1;P1;durP2;ratioP2;P2;SDS_P1;SDS_P2;PMS_P1;PMS_P2;Temp;Humidity;BMP_temperature;BMP_pressure;BME280_temperature;BME280_humidity;BME280_pressure;Samples;Min_cycle;Max_cycle;Signal;HPM_P1;HPM_P2
2022/02/20 00:01:35;;;;;;;8.20;2.80;;;;;7.20;97639.40;;;;110528;1251;41137;-70
2022/02/20 00:04:04;;;;;;;11.20;3.20;;;;;7.20;97642.60;;;;110665;1250;42072;-66
2022/02/20 00:06:35;;;;;;;11.00;2.80;;;;;7.20;97647.60;;;;110699;1250;41142;-65
2022/02/20 00:09:05;;;;;;;10.80;2.60;;;;;7.30;97648.00;;;;110586;1253;41147;-68
2022/02/20 00:11:34;;;;;;;9.00;3.00;;;;;7.20;97653.60;;;;110545;1253;41260;-69
2022/02/20 00:14:05;;;;;;;7.10;2.70;;;;;7.24;97656.00;;;;110630;1252;41140;-68
2022/02/20 00:16:35;;;;;;;6.40;2.50;;;;;7.26;97659.40;;;;110646;1253;41647;-69
2022/02/20 00:19:07;;;;;;;7.90;2.20;;;;;7.22;97660.00;;;;110670;1253;41361;-69
2022/02/20 00:21:37;;;;;;;5.50;2.10;;;;;7.20;97661.60;;;;110628;1251;41264;-69
2022/02/20 00:24:07;;;;;;;7.30;2.10;;;;;7.20;97661.80;;;;110688;1252;41150;-69
2022/02/20 00:26:37;;;;;;;7.30;2.40;;;;;7.20;97662.20;;;;110828;1253;41959;-69
2022/02/20 00:29:06;;;;;;;9.10;2.60;;;;;7.20;97664.80;;;;110585;1253;41677;-69
2022/02/20 00:31:37;;;;;;;7.90;2.70;;;;;7.20;97663.20;;;;110624;1253;41154;-63
2022/02/20 00:34:07;;;;;;;6.90;2.90;;;;;7.16;97659.00;;;;110796;1250;41213;-72
2022/02/20 00:36:36;;;;;;;14.20;3.30;;;;;7.10;97660.40;;;;110527;1253;42408;-65
2022/02/20 00:39:06;;;;;;;9.50;3.30;;;;;7.10;97662.80;;;;110540;1253;41160;-64
2022/02/20 00:41:36;;;;;;;10.70;3.40;;;;;7.00;97666.00;;;;110548;1253;41141;-70
2022/02/20 00:44:06;;;;;;;8.90;3.60;;;;;6.90;97671.00;;;;110486;1253;41155;-70
2022/02/20 00:46:35;;;;;;;10.90;3.30;;;;;6.80;97671.00;;;;110667;1250;41738;-68
2022/02/20 00:49:05;;;;;;;9.10;3.80;;;;;6.80;97681.60;;;;110533;1253;41853;-68
2022/02/20 00:51:38;;;;;;;11.40;3.40;;;;;6.80;97681.40;;;;110683;1253;41163;-67
2022/02/20 00:54:10;;;;;;;12.30;3.60;;;;;6.80;97681.00;;;;110546;1253;41159;-68
2022/02/20 00:56:41;;;;;;;12.80;4.20;;;;;6.80;97675.80;;;;110636;1253;41858;-62
2022/02/20 00:59:10;;;;;;;12.60;3.50;;;;;6.80;97670.80;;;;110591;1253;41178;-68
2022/02/20 01:01:41;;;;;;;9.60;3.10;;;;;6.80;97673.40;;;;110301;1254;41346;-66
2022/02/20 01:04:11;;;;;;;10.10;3.30;;;;;6.76;97670.20;;;;110469;1253;41140;-69
2022/02/20 01:06:41;;;;;;;11.70;3.60;;;;;6.70;97674.60;;;;110629;1252;41717;-68
2022/02/20 01:09:11;;;;;;;10.00;3.20;;;;;6.70;97672.60;;;;110671;1253;42232;-68
2022/02/20 01:11:41;;;;;;;7.80;3.10;;;;;6.70;97674.00;;;;110635;1253;41118;-69
2022/02/20 01:14:11;;;;;;;10.10;3.50;;;;;6.70;97676.60;;;;110575;1254;42508;-66
2022/02/20 01:16:41;;;;;;;8.20;3.40;;;;;6.70;97672.60;;;;110520;1254;41741;-69
2022/02/20 01:19:11;;;;;;;10.60;3.90;;;;;6.64;97675.20;;;;110554;1254;41138;-72
2022/02/20 01:21:41;;;;;;;14.90;5.10;;;;;6.60;97674.40;;;;110424;1253;41475;-70
2022/02/20 01:24:11;;;;;;;13.30;5.10;;;;;6.60;97670.80;;;;110537;1254;41283;-69
2022/02/20 01:26:42;;;;;;;11.20;4.10;;;;;6.60;97670.40;;;;110573;1253;41150;-68
2022/02/20 01:29:12;;;;;;;9.70;3.80;;;;;6.60;97673.80;;;;110472;1253;41595;-68
2022/02/20 01:31:43;;;;;;;10.90;4.20;;;;;6.60;97662.20;;;;110562;1253;41181;-69
2022/02/20 01:34:13;;;;;;;10.30;4.10;;;;;6.54;97665.40;;;;110527;1254;41193;-67
2022/02/20 01:36:43;;;;;;;12.30;4.00;;;;;6.50;97662.20;;;;110600;1254;41305;-68
2022/02/20 01:39:18;;;;;;;10.30;4.10;;;;;6.50;97660.80;;;;110557;1254;41264;-68
2022/02/20 01:41:49;;;;;;;;;;;;;6.50;97658.20;;;;110480;1253;41272;-68
2022/02/20 01:44:20;;;;;;;9.00;3.30;;;;;6.50;97659.20;;;;110497;1253;41701;-68
2022/02/20 01:46:50;;;;;;;;;;;;;6.40;97653.20;;;;110531;1253;41232;-68
2022/02/20 01:49:21;;;;;;;9.70;3.40;;;;;6.40;97661.60;;;;110320;1254;41157;-69
2022/02/20 01:51:51;;;;;;;9.50;3.70;;;;;6.30;97655.40;;;;110591;1253;41260;-65
2022/02/20 01:54:21;;;;;;;7.90;3.00;;;;;6.30;97658.40;;;;110499;1253;41549;-66
2022/02/20 01:56:54;;;;;;;10.20;3.30;;;;;6.20;97664.80;;;;110507;1254;41157;-65
2022/02/20 01:59:39;;;;;;;8.10;2.80;;;;;6.22;97663.00;;;;110605;1253;42561;-63
2022/02/20 02:02:09;;;;;;;8.20;2.70;;;;;6.20;97663.00;;;;110707;1252;42220;-64
2022/02/20 02:04:49;;;;;;;9.10;2.80;;;;;6.10;97671.80;;;;110823;1251;41297;-63
2022/02/20 02:07:19;;;;;;;9.50;3.40;;;;;6.10;97667.80;;;;110415;1254;41157;-63
2022/02/20 02:09:59;;;;;;;9.30;3.80;;;;;6.10;97663.60;;;;110434;1253;41380;-66
2022/02/20 02:12:37;;;;;;;10.40;3.20;;;;;6.10;97659.40;;;;110561;1252;41265;-67
2022/02/20 02:15:12;;;;;;;8.70;3.40;;;;;6.10;97658.80;;;;110541;1253;41854;-64
2022/02/20 02:17:42;;;;;;;10.80;4.30;;;;;6.10;97651.00;;;;110454;1253;41250;-64
2022/02/20 02:20:42;;;;;;;10.00;3.80;;;;;6.10;97651.40;;;;110200;1254;41273;-71
2022/02/20 02:23:28;;;;;;;10.40;3.90;;;;;6.10;97647.00;;;;110598;1253;42019;-63
2022/02/20 02:26:15;;;;;;;10.50;4.40;;;;;6.10;97648.00;;;;110532;1251;41297;-64
2022/02/20 02:29:05;;;;;;;12.30;5.00;;;;;6.10;97640.40;;;;110859;1250;41256;-63
2022/02/20 02:31:36;;;;;;;;;;;;;6.10;97643.00;;;;110376;1254;42047;-69
2022/02/20 02:34:05;;;;;;;8.20;2.80;;;;;6.10;97644.00;;;;110483;1254;41651;-70
2022/02/20 02:36:36;;;;;;;9.60;2.80;;;;;6.10;97641.60;;;;110587;1254;41136;-68
2022/02/20 02:39:06;;;;;;;11.00;3.40;;;;;6.00;97643.80;;;;110481;1253;41198;-65
2022/02/20 02:41:37;;;;;;;9.80;3.30;;;;;6.00;97643.20;;;;110522;1253;41171;-68
2022/02/20 02:44:08;;;;;;;10.20;3.60;;;;;6.00;97638.60;;;;110206;1253;476642;-63
2022/02/20 02:46:38;;;;;;;9.80;3.70;;;;;5.90;97641.80;;;;110440;1254;41268;-65
2022/02/20 02:49:09;;;;;;;;;;;;;5.90;97647.60;;;;110581;1253;41160;-68
2022/02/20 02:51:40;;;;;;;9.10;3.30;;;;;5.90;97648.80;;;;110551;1253;41647;-69
2022/02/20 02:54:17;;;;;;;8.80;3.40;;;;;5.80;97653.00;;;;110445;1254;41943;-69
2022/02/20 02:56:49;;;;;;;11.00;4.10;;;;;5.78;97650.00;;;;110460;1253;41261;-70
2022/02/20 02:59:20;;;;;;;10.90;4.10;;;;;5.66;97642.80;;;;110527;1254;41139;-69
2022/02/20 03:01:52;;;;;;;10.50;4.20;;;;;5.58;97641.00;;;;110541;1253;41665;-69
2022/02/20 03:04:22;;;;;;;11.90;4.80;;;;;5.50;97638.80;;;;110550;1254;41876;-68
2022/02/20 03:06:52;;;;;;;10.70;4.20;;;;;5.42;97639.20;;;;110508;1254;41673;-65
2022/02/20 03:09:24;;;;;;;10.20;3.60;;;;;5.30;97643.20;;;;110558;1254;41156;-68
2022/02/20 03:11:54;;;;;;;10.80;4.00;;;;;5.30;97641.20;;;;110498;1254;41171;-68
2022/02/20 03:14:28;;;;;;;11.00;4.30;;;;;5.28;97641.40;;;;110632;1253;41158;-66
2022/02/20 03:16:59;;;;;;;10.00;3.90;;;;;5.20;97644.80;;;;110486;1254;41145;-68
2022/02/20 03:19:31;;;;;;;9.00;4.10;;;;;5.20;97648.40;;;;110552;1254;41773;-64
2022/02/20 03:22:01;;;;;;;14.30;4.60;;;;;5.20;97639.00;;;;110674;1252;41260;-65
2022/02/20 03:24:32;;;;;;;10.20;4.30;;;;;5.10;97646.60;;;;110577;1253;41155;-63
2022/02/20 03:27:03;;;;;;;9.90;3.40;;;;;5.10;97647.80;;;;110485;1253;41131;-66
2022/02/20 03:29:36;;;;;;;8.50;3.30;;;;;5.12;97640.80;;;;110571;1253;41177;-69
2022/02/20 03:32:07;;;;;;;10.00;2.90;;;;;5.14;97646.40;;;;110508;1254;42101;-68
2022/02/20 03:34:38;;;;;;;7.10;2.60;;;;;5.20;97644.80;;;;110431;1254;41194;-70
2022/02/20 03:37:08;;;;;;;6.50;2.60;;;;;5.20;97643.20;;;;110510;1254;42376;-66
2022/02/20 03:39:38;;;;;;;8.60;2.50;;;;;5.20;97637.60;;;;110551;1254;41160;-66
2022/02/20 03:42:10;;;;;;;6.20;2.10;;;;;5.20;97639.00;;;;110435;1253;41175;-68
2022/02/20 03:45:05;;;;;;;6.60;2.80;;;;;5.28;97636.60;;;;110584;1253;41198;-64
2022/02/20 03:47:38;;;;;;;9.90;3.00;;;;;5.20;97634.20;;;;110553;1250;42345;-63
2022/02/20 03:50:08;;;;;;;7.40;2.80;;;;;5.20;97628.60;;;;110564;1254;41228;-62
2022/02/20 03:52:46;;;;;;;10.90;3.60;;;;;5.20;97628.60;;;;110476;1254;41557;-63
2022/02/20 03:55:22;;;;;;;9.60;3.10;;;;;5.10;97633.00;;;;110605;1253;41257;-64
2022/02/20 03:57:53;;;;;;;8.40;2.90;;;;;5.10;97629.60;;;;110396;1254;41856;-65
2022/02/20 04:00:33;;;;;;;10.10;3.30;;;;;5.10;97628.80;;;;110453;1253;41712;-67
2022/02/20 04:03:23;;;;;;;7.00;2.30;;;;;5.10;97629.40;;;;110561;1254;42058;-67
2022/02/20 04:05:55;;;;;;;7.40;2.60;;;;;5.20;97631.00;;;;110537;1254;41619;-68
2022/02/20 04:08:26;;;;;;;7.20;2.60;;;;;5.20;97631.20;;;;110451;1254;41146;-64
2022/02/20 04:11:01;;;;;;;8.00;2.90;;;;;5.20;97626.20;;;;110686;1251;41147;-63
2022/02/20 04:13:40;;;;;;;6.60;2.80;;;;;5.18;97622.20;;;;110465;1251;41487;-67
2022/02/20 04:16:14;;;;;;;8.10;2.80;;;;;5.10;97617.60;;;;110534;1253;41638;-64
2022/02/20 04:18:49;;;;;;;10.80;3.00;;;;;5.10;97614.60;;;;110629;1254;41186;-64
2022/02/20 04:21:26;;;;;;;5.70;2.40;;;;;5.06;97614.80;;;;110717;1253;41134;-63
2022/02/20 04:24:05;;;;;;;8.50;2.80;;;;;5.00;97608.00;;;;110548;1254;41636;-67
2022/02/20 04:26:37;;;;;;;7.70;2.70;;;;;5.00;97614.20;;;;110542;1254;41384;-67
2022/02/20 04:29:10;;;;;;;9.40;2.70;;;;;5.00;97609.00;;;;110666;1251;41266;-63
2022/02/20 04:31:40;;;;;;;7.80;2.70;;;;;5.00;97601.80;;;;110521;1253;41657;-64
2022/02/20 04:34:11;;;;;;;6.50;2.30;;;;;5.00;97597.20;;;;110463;1253;42513;-68
2022/02/20 04:36:41;;;;;;;7.30;2.90;;;;;4.98;97590.20;;;;110481;1254;41168;-68
2022/02/20 04:39:11;;;;;;;7.90;2.70;;;;;4.90;97585.60;;;;110568;1253;41185;-70
2022/02/20 04:41:45;;;;;;;8.10;2.70;;;;;4.90;97584.60;;;;110468;1254;42401;-69
2022/02/20 04:44:21;;;;;;;11.10;2.80;;;;;4.90;97576.80;;;;110584;1252;41261;-69
2022/02/20 04:46:52;;;;;;;7.00;2.70;;;;;4.90;97577.80;;;;110539;1254;41174;-66
2022/02/20 04:49:22;;;;;;;6.60;2.60;;;;;4.90;97574.20;;;;110570;1254;41773;-69
2022/02/20 04:52:10;;;;;;;9.80;3.30;;;;;4.90;97570.80;;;;110621;1251;41328;-65
2022/02/20 04:55:16;;;;;;;11.00;3.60;;;;;4.80;97571.60;;;;110583;1253;41160;-67
2022/02/20 04:57:46;;;;;;;10.30;4.00;;;;;4.80;97570.20;;;;110630;1253;42503;-69
2022/02/20 05:00:21;;;;;;;13.90;4.40;;;;;4.70;97577.80;;;;110608;1253;41586;-67
2022/02/20 05:03:03;;;;;;;10.50;4.10;;;;;4.68;97572.40;;;;110602;1251;41273;-66
2022/02/20 05:06:05;;;;;;;10.10;3.70;;;;;4.52;97572.00;;;;110489;1251;42245;-66
2022/02/20 05:08:42;;;;;;;12.50;4.30;;;;;4.50;97567.80;;;;110727;1251;41918;-65
2022/02/20 05:11:17;;;;;;;11.00;4.00;;;;;4.50;97573.00;;;;110642;1251;41603;-66
2022/02/20 05:13:54;;;;;;;10.30;3.90;;;;;4.40;97568.80;;;;110679;1251;42320;-66
2022/02/20 05:16:26;;;;;;;8.70;3.50;;;;;4.40;97569.00;;;;110473;1254;41259;-66
2022/02/20 05:18:56;;;;;;;9.90;3.50;;;;;4.40;97569.40;;;;110298;1253;41215;-65
2022/02/20 05:21:28;;;;;;;9.20;3.40;;;;;4.40;97577.60;;;;110501;1253;41291;-68
2022/02/20 05:23:58;;;;;;;10.20;3.20;;;;;4.34;97577.80;;;;110580;1253;41170;-67
2022/02/20 05:26:27;;;;;;;8.10;2.90;;;;;4.30;97580.80;;;;110384;1254;41157;-69
2022/02/20 05:28:58;;;;;;;;;;;;;4.30;97584.20;;;;110633;1250;41754;-67
2022/02/20 05:31:27;;;;;;;7.90;2.60;;;;;4.30;97577.00;;;;110599;1253;41256;-67
2022/02/20 05:33:59;;;;;;;7.60;2.80;;;;;4.30;97574.60;;;;110579;1253;41165;-66
2022/02/20 05:36:29;;;;;;;7.30;2.40;;;;;4.30;97574.00;;;;110592;1251;41201;-68
2022/02/20 05:39:07;;;;;;;8.30;2.60;;;;;4.30;97576.40;;;;110758;1251;42387;-67
2022/02/20 05:41:39;;;;;;;7.40;2.70;;;;;4.26;97572.60;;;;110475;1253;41551;-67
2022/02/20 05:44:09;;;;;;;9.40;2.50;;;;;4.24;97575.00;;;;110489;1251;41145;-68
2022/02/20 05:46:41;;;;;;;8.60;2.50;;;;;4.24;97575.60;;;;110354;1251;41268;-67
2022/02/20 05:49:15;;;;;;;6.20;2.30;;;;;4.30;97576.20;;;;110509;1251;41243;-65
2022/02/20 05:51:52;;;;;;;7.20;2.80;;;;;4.30;97575.40;;;;110516;1250;41595;-66
2022/02/20 05:54:25;;;;;;;7.90;2.90;;;;;4.30;97579.60;;;;110582;1253;41285;-68
2022/02/20 05:56:55;;;;;;;6.80;2.80;;;;;4.30;97586.60;;;;110416;1251;42306;-67
2022/02/20 05:59:24;;;;;;;6.90;2.50;;;;;4.26;97591.40;;;;110533;1254;41163;-70
2022/02/20 06:01:55;;;;;;;9.00;2.90;;;;;4.28;97577.80;;;;110532;1254;42023;-68
2022/02/20 06:04:27;;;;;;;7.80;2.70;;;;;4.30;97578.00;;;;110487;1253;42042;-67
2022/02/20 06:07:13;;;;;;;9.80;2.80;;;;;4.30;97586.20;;;;110560;1251;41566;-68
2022/02/20 06:10:13;;;;;;;8.40;2.80;;;;;4.30;97583.20;;;;110570;1253;41455;-69
2022/02/20 06:13:04;;;;;;;6.70;2.60;;;;;4.30;97582.20;;;;110666;1251;41267;-63
2022/02/20 06:15:54;;;;;;;7.20;2.80;;;;;4.30;97590.60;;;;110387;1251;41671;-68
2022/02/20 06:18:45;;;;;;;7.40;2.50;;;;;4.40;97591.40;;;;110274;1251;41271;-64
2022/02/20 06:21:33;;;;;;;6.30;2.60;;;;;4.40;97591.80;;;;110696;1251;41492;-63
2022/02/20 06:24:16;;;;;;;7.10;2.50;;;;;4.40;97597.00;;;;110547;1251;41625;-67
2022/02/20 06:26:58;;;;;;;6.30;2.30;;;;;4.50;97596.60;;;;110521;1254;41134;-67
2022/02/20 06:29:28;;;;;;;9.30;3.10;;;;;4.50;97601.60;;;;110872;1251;41538;-63
2022/02/20 06:31:59;;;;;;;14.30;4.30;;;;;4.60;97599.20;;;;110672;1250;41599;-64
2022/02/20 06:34:32;;;;;;;9.60;3.80;;;;;4.66;97604.00;;;;110542;1254;42045;-64
2022/02/20 06:37:03;;;;;;;11.70;4.00;;;;;4.70;97601.20;;;;110641;1253;41264;-64
2022/02/20 06:39:34;;;;;;;10.40;4.40;;;;;4.80;97603.60;;;;110542;1253;41152;-66
2022/02/20 06:42:04;;;;;;;8.30;3.70;;;;;4.80;97600.20;;;;110480;1253;41138;-62
2022/02/20 06:44:34;;;;;;;9.00;3.80;;;;;4.90;97600.40;;;;110549;1254;42065;-63
2022/02/20 06:47:42;;;;;;;10.40;3.80;;;;;5.00;97594.40;;;;110192;1257;42065;-67
2022/02/20 06:50:21;;;;;;;10.10;4.00;;;;;5.10;97603.20;;;;110165;1257;41684;-64
2022/02/20 06:53:23;;;;;;;12.10;4.70;;;;;5.20;97610.60;;;;110401;1254;42433;-69
2022/02/20 06:56:14;;;;;;;11.20;4.40;;;;;5.40;97609.80;;;;110549;1253;42579;-64
2022/02/20 06:58:44;;;;;;;9.40;4.20;;;;;5.46;97612.40;;;;110556;1254;41369;-64
2022/02/20 07:01:13;;;;;;;11.20;4.40;;;;;5.50;97612.40;;;;110575;1254;41307;-68
2022/02/20 07:03:43;;;;;;;10.00;3.90;;;;;5.60;97609.40;;;;110565;1254;41206;-68
2022/02/20 07:06:12;;;;;;;12.30;5.30;;;;;5.70;97602.80;;;;110783;1252;41250;-66
2022/02/20 07:08:41;;;;;;;15.30;6.60;;;;;5.82;97606.00;;;;110647;1250;41169;-62
2022/02/20 07:11:10;;;;;;;21.20;9.10;;;;;5.94;97602.00;;;;110482;1253;41146;-63
2022/02/20 07:13:40;;;;;;;19.60;8.80;;;;;6.02;97597.80;;;;110692;1251;42379;-65
2022/02/20 07:16:09;;;;;;;17.90;7.80;;;;;6.10;97602.20;;;;110589;1252;41131;-64
2022/02/20 07:18:38;;;;;;;20.70;7.50;;;;;6.20;97604.00;;;;110522;1252;41272;-63
2022/02/20 07:21:07;;;;;;;20.30;8.50;;;;;6.30;97596.20;;;;110399;1253;41183;-63
2022/02/20 07:23:37;;;;;;;20.30;8.00;;;;;6.42;97599.60;;;;110585;1251;41162;-68
2022/02/20 07:26:06;;;;;;;15.20;5.60;;;;;6.60;97604.00;;;;110697;1251;41884;-68
2022/02/20 07:28:35;;;;;;;13.60;5.20;;;;;6.70;97601.60;;;;110579;1252;41965;-66
2022/02/20 07:31:04;;;;;;;21.40;8.90;;;;;6.80;97605.00;;;;110779;1251;41568;-64
2022/02/20 07:33:33;;;;;;;19.60;8.20;;;;;6.90;97605.00;;;;110498;1253;41269;-65
2022/02/20 07:36:03;;;;;;;18.00;7.00;;;;;7.00;97598.40;;;;110696;1251;41176;-63
2022/02/20 07:38:32;;;;;;;19.10;7.80;;;;;7.10;97603.40;;;;110296;1254;41194;-67
2022/02/20 07:41:01;;;;;;;21.10;8.80;;;;;7.20;97604.40;;;;110803;1250;41319;-66
2022/02/20 07:43:31;;;;;;;21.80;8.80;;;;;7.30;97600.80;;;;110800;1251;41172;-68
2022/02/20 07:46:00;;;;;;;22.00;10.20;;;;;7.40;97600.00;;;;110563;1251;41153;-68
2022/02/20 07:48:29;;;;;;;23.10;9.80;;;;;7.42;97604.80;;;;110572;1252;41152;-69
2022/02/20 07:50:58;;;;;;;20.80;9.30;;;;;7.50;97610.00;;;;110727;1251;41264;-63
2022/02/20 07:53:29;;;;;;;17.60;8.10;;;;;7.60;97609.40;;;;110566;1251;41614;-63
2022/02/20 07:55:59;;;;;;;18.50;8.50;;;;;7.70;97603.80;;;;110513;1253;41911;-64
2022/02/20 07:58:30;;;;;;;19.20;8.60;;;;;7.70;97607.00;;;;110622;1251;41659;-66
2022/02/20 08:01:01;;;;;;;16.30;6.70;;;;;7.80;97599.00;;;;110730;1251;41788;-67
2022/02/20 08:03:30;;;;;;;14.10;5.30;;;;;7.82;97595.60;;;;110612;1252;41249;-67
2022/02/20 08:06:01;;;;;;;14.30;5.50;;;;;7.90;97589.00;;;;110562;1253;42370;-68
2022/02/20 08:08:31;;;;;;;11.20;4.70;;;;;7.98;97587.60;;;;110348;1251;41171;-67
2022/02/20 08:11:01;;;;;;;32.30;14.00;;;;;8.00;97587.60;;;;110708;1251;41179;-68
2022/02/20 08:13:30;;;;;;;17.20;6.60;;;;;8.10;97593.40;;;;110765;1250;41272;-67
2022/02/20 08:16:00;;;;;;;10.50;3.90;;;;;8.10;97592.00;;;;110698;1251;41183;-64
2022/02/20 08:18:29;;;;;;;7.00;2.60;;;;;8.20;97595.00;;;;110522;1251;41266;-65
2022/02/20 08:20:58;;;;;;;5.80;2.30;;;;;8.20;97594.40;;;;110315;1253;41164;-65
2022/02/20 08:23:45;;;;;;;6.30;2.10;;;;;8.20;97598.00;;;;110619;1251;41573;-64
2022/02/20 08:26:14;;;;;;;5.00;2.10;;;;;8.20;97591.20;;;;110528;1253;41727;-63
2022/02/20 08:28:44;;;;;;;7.30;2.10;;;;;8.12;97588.20;;;;110459;1253;41181;-64
2022/02/20 08:31:13;;;;;;;7.70;2.10;;;;;8.20;97587.60;;;;110541;1253;42267;-64
2022/02/20 08:33:42;;;;;;;3.70;1.70;;;;;8.20;97591.60;;;;110690;1251;41955;-62
2022/02/20 08:36:16;;;;;;;3.90;1.70;;;;;8.30;97593.20;;;;110712;1250;41171;-64
2022/02/20 08:38:46;;;;;;;6.70;2.00;;;;;8.40;97592.80;;;;110662;1251;41179;-67
2022/02/20 08:41:15;;;;;;;10.40;4.20;;;;;8.50;97592.80;;;;110794;1250;42824;-63
2022/02/20 08:43:45;;;;;;;10.50;3.80;;;;;8.56;97588.80;;;;110733;1250;41485;-63
2022/02/20 08:46:14;;;;;;;7.60;3.00;;;;;8.70;97582.00;;;;110791;1251;41588;-64
2022/02/20 08:48:45;;;;;;;9.70;3.10;;;;;8.86;97580.40;;;;110784;1251;41151;-64
2022/02/20 08:51:16;;;;;;;9.60;3.80;;;;;9.00;97572.20;;;;110798;1250;41272;-64
2022/02/20 08:53:47;;;;;;;9.00;3.70;;;;;9.10;97573.20;;;;110592;1253;41159;-64
2022/02/20 08:56:16;;;;;;;10.10;3.30;;;;;9.20;97576.40;;;;110782;1250;41673;-64
2022/02/20 08:58:49;;;;;;;8.60;3.10;;;;;9.40;97581.40;;;;110437;1253;41314;-61
2022/02/20 09:01:18;;;;;;;11.80;3.20;;;;;9.58;97571.00;;;;110481;1253;42292;-62
2022/02/20 09:03:47;;;;;;;7.70;3.00;;;;;9.70;97573.80;;;;110496;1253;41182;-64
2022/02/20 09:06:16;;;;;;;7.80;2.90;;;;;9.96;97573.80;;;;110479;1251;41861;-62
2022/02/20 09:08:46;;;;;;;7.20;2.60;;;;;10.22;97570.40;;;;110683;1250;41151;-63
2022/02/20 09:11:19;;;;;;;8.10;2.60;;;;;10.74;97571.20;;;;110521;1253;41439;-65
2022/02/20 09:13:48;;;;;;;6.50;2.40;;;;;11.64;97561.20;;;;110615;1251;42164;-66
2022/02/20 09:16:18;;;;;;;6.80;2.60;;;;;12.64;97557.20;;;;110474;1251;41174;-68
2022/02/20 09:18:47;;;;;;;8.20;2.40;;;;;14.28;97547.00;;;;110611;1251;41158;-65
2022/02/20 09:21:16;;;;;;;7.50;2.90;;;;;16.82;97544.20;;;;110576;1253;42086;-67
2022/02/20 09:23:46;;;;;;;7.30;2.70;;;;;18.56;97532.60;;;;110692;1252;41200;-64
2022/02/20 09:26:15;;;;;;;7.70;2.60;;;;;19.06;97519.60;;;;110580;1251;41789;-68
2022/02/20 09:28:43;;;;;;;7.50;2.90;;;;;20.54;97508.80;;;;110446;1251;41218;-67
2022/02/20 09:31:13;;;;;;;7.00;2.70;;;;;22.18;97498.20;;;;110623;1253;41910;-70
2022/02/20 09:33:42;;;;;;;12.00;5.00;;;;;23.16;97500.60;;;;110544;1253;41697;-70
2022/02/20 09:36:11;;;;;;;12.90;4.10;;;;;22.60;97489.40;;;;110544;1253;42196;-65
2022/02/20 09:38:41;;;;;;;12.10;4.10;;;;;23.50;97493.40;;;;110620;1250;41157;-66
2022/02/20 09:41:11;;;;;;;8.40;3.40;;;;;24.32;97481.20;;;;110509;1253;42415;-66
2022/02/20 09:43:41;;;;;;;9.50;3.30;;;;;25.06;97483.40;;;;110460;1251;41689;-72
2022/02/20 09:46:11;;;;;;;10.10;3.60;;;;;25.40;97475.80;;;;110732;1252;42476;-70
2022/02/20 09:48:41;;;;;;;12.90;5.10;;;;;25.74;97468.00;;;;110641;1253;41365;-71
2022/02/20 09:51:09;;;;;;;9.40;3.70;;;;;23.66;97470.80;;;;110679;1251;41165;-70
2022/02/20 09:53:39;;;;;;;10.90;3.30;;;;;20.76;97475.80;;;;110452;1253;41846;-68
2022/02/20 09:56:08;;;;;;;7.80;2.80;;;;;20.58;97480.60;;;;110597;1251;41505;-71
2022/02/20 09:58:37;;;;;;;6.50;2.40;;;;;17.80;97486.40;;;;110535;1253;41621;-70
2022/02/20 10:01:09;;;;;;;6.80;2.50;;;;;17.54;97489.60;;;;110513;1253;41814;-65
2022/02/20 10:03:44;;;;;;;7.50;2.50;;;;;16.16;97500.20;;;;110603;1250;41143;-65
2022/02/20 10:06:20;;;;;;;7.00;2.70;;;;;16.14;97512.20;;;;110613;1252;42497;-64
2022/02/20 10:08:55;;;;;;;7.50;2.90;;;;;15.88;97520.00;;;;110403;1253;41402;-66
2022/02/20 10:11:26;;;;;;;8.10;3.20;;;;;14.86;97518.60;;;;110561;1251;41281;-66
2022/02/20 10:14:13;;;;;;;8.90;3.30;;;;;14.78;97509.40;;;;110512;1251;41147;-68
2022/02/20 10:16:42;;;;;;;9.10;3.60;;;;;14.34;97511.20;;;;110614;1251;41710;-64
2022/02/20 10:20:04;;;;;;;9.90;3.40;;;;;14.26;97497.20;;;;110533;1253;41184;-70
2022/02/20 10:22:52;;;;;;;8.30;3.00;;;;;13.38;97509.40;;;;110589;1253;41150;-64
2022/02/20 10:25:45;;;;;;;7.90;2.70;;;;;12.88;97505.00;;;;110534;1252;41142;-63
2022/02/20 10:28:33;;;;;;;9.00;3.10;;;;;14.20;97501.00;;;;110517;1251;41274;-68
2022/02/20 10:31:02;;;;;;;8.20;2.80;;;;;15.32;97475.40;;;;110326;1254;41515;-65
2022/02/20 10:33:31;;;;;;;7.10;2.70;;;;;18.40;97458.40;;;;110573;1251;41173;-67
2022/02/20 10:36:00;;;;;;;8.00;2.70;;;;;21.80;97474.60;;;;110634;1251;42228;-64
2022/02/20 10:38:36;;;;;;;13.90;6.10;;;;;23.14;97466.60;;;;110605;1251;41641;-65
2022/02/20 10:41:08;;;;;;;35.90;14.80;;;;;23.80;97470.00;;;;110616;1253;41258;-66
2022/02/20 10:43:41;;;;;;;38.20;18.30;;;;;23.14;97473.40;;;;110366;1254;42079;-65
2022/02/20 10:46:20;;;;;;;24.20;12.20;;;;;21.26;97474.00;;;;110539;1253;41269;-69
2022/02/20 10:48:53;;;;;;;32.90;14.80;;;;;20.44;97481.00;;;;110511;1253;41723;-65
2022/02/20 10:51:22;;;;;;;20.00;8.30;;;;;19.88;97478.00;;;;110676;1251;41396;-65
2022/02/20 10:53:52;;;;;;;10.30;4.20;;;;;19.30;97477.80;;;;110629;1251;41748;-71
2022/02/20 10:56:41;;;;;;;9.10;3.10;;;;;18.86;97482.60;;;;110621;1252;41192;-70
2022/02/20 10:59:11;;;;;;;10.70;3.20;;;;;18.60;97476.20;;;;110835;1251;41144;-66
2022/02/20 11:01:41;;;;;;;11.40;3.50;;;;;18.30;97477.60;;;;110640;1251;41570;-65
2022/02/20 11:04:12;;;;;;;7.90;2.80;;;;;17.70;97481.60;;;;110626;1251;41309;-65
2022/02/20 11:06:49;;;;;;;7.40;2.80;;;;;17.60;97475.00;;;;110751;1250;41483;-69
2022/02/20 11:09:18;;;;;;;12.80;6.10;;;;;17.70;97472.20;;;;110549;1253;41202;-64
2022/02/20 11:11:49;;;;;;;10.00;3.80;;;;;17.96;97464.60;;;;110490;1253;41727;-67
2022/02/20 11:14:23;;;;;;;8.80;3.20;;;;;18.56;97461.00;;;;110636;1250;41166;-67
2022/02/20 11:16:53;;;;;;;9.80;3.10;;;;;19.58;97458.60;;;;110479;1251;41159;-68
2022/02/20 11:19:24;;;;;;;10.30;3.80;;;;;18.92;97455.00;;;;110536;1253;41158;-71
2022/02/20 11:21:55;;;;;;;;;;;;;15.20;97461.80;;;;110582;1253;41514;-68
2022/02/20 11:24:27;;;;;;;9.30;3.30;;;;;15.58;97448.60;;;;110690;1252;41951;-69
2022/02/20 11:27:00;;;;;;;8.30;3.50;;;;;16.88;97445.20;;;;110568;1251;41332;-71
2022/02/20 11:29:30;;;;;;;10.70;3.80;;;;;18.32;97444.20;;;;110759;1251;41174;-70
2022/02/20 11:31:59;;;;;;;9.00;3.40;;;;;19.98;97437.40;;;;110688;1250;41262;-70
2022/02/20 11:34:29;;;;;;;10.40;3.70;;;;;22.60;97413.80;;;;110611;1252;41178;-67
2022/02/20 11:36:59;;;;;;;8.80;3.50;;;;;24.58;97412.60;;;;110518;1253;41144;-65
2022/02/20 11:39:28;;;;;;;9.40;3.90;;;;;26.52;97396.60;;;;110589;1253;41276;-66
2022/02/20 11:42:13;;;;;;;10.80;4.10;;;;;27.44;97397.20;;;;110839;1250;41280;-68
2022/02/20 11:44:52;;;;;;;12.90;3.60;;;;;28.10;97388.40;;;;110451;1253;42344;-65
2022/02/20 11:47:34;;;;;;;10.00;3.80;;;;;29.44;97386.60;;;;110598;1251;41142;-68
2022/02/20 11:50:16;;;;;;;10.20;3.90;;;;;28.20;97386.80;;;;110802;1251;41205;-67
2022/02/20 11:52:57;;;;;;;10.60;3.90;;;;;28.22;97390.00;;;;110657;1252;41247;-66
2022/02/20 11:55:42;;;;;;;14.50;7.00;;;;;26.20;97388.60;;;;110721;1250;41257;-67
2022/02/20 11:58:11;;;;;;;14.10;6.30;;;;;22.20;97398.40;;;;110542;1251;41278;-67
2022/02/20 12:01:03;;;;;;;11.90;5.50;;;;;19.34;97399.00;;;;110763;1251;43012;-66
2022/02/20 12:03:41;;;;;;;13.70;4.40;;;;;18.12;97395.80;;;;110582;1250;42445;-67
2022/02/20 12:06:10;;;;;;;16.10;6.80;;;;;16.92;97394.20;;;;110764;1250;41141;-70
2022/02/20 12:08:46;;;;;;;17.10;6.30;;;;;15.50;97393.20;;;;110731;1250;41825;-68
2022/02/20 12:11:21;;;;;;;8.80;3.00;;;;;14.76;97399.20;;;;110624;1253;41720;-66
2022/02/20 12:13:56;;;;;;;9.30;3.30;;;;;15.88;97392.40;;;;110658;1250;41150;-68
2022/02/20 12:16:34;;;;;;;8.60;3.30;;;;;15.74;97380.80;;;;110643;1250;41896;-64
2022/02/20 12:19:18;;;;;;;8.30;2.90;;;;;16.38;97370.40;;;;110679;1251;41239;-65
2022/02/20 12:22:04;;;;;;;8.90;3.10;;;;;16.62;97354.40;;;;110568;1253;41158;-65
2022/02/20 12:24:47;;;;;;;11.80;4.10;;;;;16.34;97357.40;;;;110729;1250;41144;-70
2022/02/20 12:27:20;;;;;;;12.00;4.70;;;;;15.98;97357.60;;;;110768;1250;41155;-68
2022/02/20 12:30:03;;;;;;;11.10;3.90;;;;;15.70;97357.80;;;;110571;1251;41720;-70
2022/02/20 12:32:35;;;;;;;10.00;3.90;;;;;15.12;97356.80;;;;110471;1251;41249;-66
2022/02/20 12:35:20;;;;;;;12.10;3.80;;;;;14.88;97355.20;;;;110538;1253;41292;-70
2022/02/20 12:37:55;;;;;;;11.40;3.80;;;;;14.44;97350.80;;;;110737;1251;41153;-68
2022/02/20 12:40:31;;;;;;;9.80;3.60;;;;;17.22;97329.00;;;;110688;1250;41190;-71
2022/02/20 12:43:03;;;;;;;10.10;2.90;;;;;19.00;97340.20;;;;110608;1252;41170;-70